Time;durP1;ratioP1;P1;durP2;ratioP2;P2;SDS_P1;SDS_P2;PMS_P1;PMS_P2;Temp;Humidity;BMP_temperature;BMP_pressure;BME280_temperature;BME280_humidity;BME280_pressure;Samples;Min_cycle;Max_cycle;Signal;HPM_P1;HPM_P2
2023/12/04 00:02:12;;;;;;;21.38;9.82;;;;;;;;;;4911991;29;20740;-82
2023/12/04 00:04:37;;;;;;;20.93;9.33;;;;;;;;;;4918542;29;20028;-82
2023/12/04 00:07:02;;;;;;;23.90;8.57;;;;;;;;;;4915257;29;20283;-82
2023/12/04 00:09:28;;;;;;;20.10;7.55;;;;;;;;;;4929258;29;20282;-82
2023/12/04 00:11:53;;;;;;;24.02;11.15;;;;;;;;;;4912383;29;20035;-82
2023/12/04 00:14:18;;;;;;;21.63;9.98;;;;;;;;;;4915224;29;20019;-84
2023/12/04 00:16:43;;;;;;;23.43;8.70;;;;;;;;;;4930011;29;20473;-83
2023/12/04 00:19:09;;;;;;;18.10;9.13;;;;;;;;;;4913922;29;20270;-84
2023/12/04 00:21:34;;;;;;;23.95;10.68;;;;;;;;;;4914726;29;20318;-84
2023/12/04 00:24:00;;;;;;;28.08;11.48;;;;;;;;;;4913293;29;20028;-84
2023/12/04 00:26:25;;;;;;;19.85;9.77;;;;;;;;;;4913159;29;20032;-84
2023/12/04 00:28:50;;;;;;;16.90;9.20;;;;;;;;;;4914583;29;20122;-84
2023/12/04 00:31:15;;;;;;;16.73;8.77;;;;;;;;;;4929808;29;20096;-84
2023/12/04 00:33:41;;;;;;;18.13;8.23;;;;;;;;;;4930614;29;20259;-84
2023/12/04 00:36:06;;;;;;;19.90;8.97;;;;;;;;;;4913602;29;20612;-83
2023/12/04 00:38:31;;;;;;;21.05;9.63;;;;;;;;;;4913314;29;20274;-83
2023/12/04 00:40:56;;;;;;;24.60;10.77;;;;;;;;;;4915078;29;20453;-84
2023/12/04 00:43:22;;;;;;;18.20;9.53;;;;;;;;;;4913024;29;20075;-84
2023/12/04 00:45:47;;;;;;;15.50;8.03;;;;;;;;;;4914173;29;20310;-84
2023/12/04 00:48:12;;;;;;;17.27;8.87;;;;;;;;;;4929371;29;20684;-84
2023/12/04 00:50:37;;;;;;;20.85;10.63;;;;;;;;;;4929592;29;20282;-84
2023/12/04 00:53:04;;;;;;;17.20;8.75;;;;;;;;;;4928831;29;20188;-84
2023/12/04 00:55:29;;;;;;;24.08;10.23;;;;;;;;;;4914270;29;20052;-83
2023/12/04 00:57:54;;;;;;;21.47;9.07;;;;;;;;;;4913688;29;20060;-84
2023/12/04 01:00:19;;;;;;;20.98;9.93;;;;;;;;;;4928794;29;20301;-84
2023/12/04 01:02:44;;;;;;;25.20;9.53;;;;;;;;;;4930162;29;20481;-84
2023/12/04 01:05:10;;;;;;;26.37;9.23;;;;;;;;;;4914763;29;20254;-84
2023/12/04 01:07:35;;;;;;;20.27;10.77;;;;;;;;;;4913713;29;20275;-84
2023/12/04 01:10:00;;;;;;;27.10;10.43;;;;;;;;;;4914632;29;20028;-84
2023/12/04 01:12:26;;;;;;;29.13;10.68;;;;;;;;;;4913428;29;20060;-84
2023/12/04 01:14:51;;;;;;;21.65;9.13;;;;;;;;;;4914448;29;20024;-84
2023/12/04 01:17:16;;;;;;;16.65;9.65;;;;;;;;;;4928483;29;20055;-84
2023/12/04 01:19:42;;;;;;;20.63;8.82;;;;;;;;;;4913422;29;20499;-84
2023/12/04 01:22:07;;;;;;;23.03;10.03;;;;;;;;;;4923815;29;20401;-84
2023/12/04 01:24:32;;;;;;;17.80;8.97;;;;;;;;;;4909814;29;20278;-84
2023/12/04 01:26:57;;;;;;;22.07;9.70;;;;;;;;;;4914763;29;20286;-84
2023/12/04 01:29:23;;;;;;;25.33;9.77;;;;;;;;;;4915513;29;20893;-84
2023/12/04 01:31:48;;;;;;;22.00;9.87;;;;;;;;;;4916972;29;20270;-84
2023/12/04 01:34:13;;;;;;;18.08;9.23;;;;;;;;;;4917713;29;20259;-84
2023/12/04 01:36:41;;;;;;;18.33;9.23;;;;;;;;;;4917308;29;20052;-84
2023/12/04 01:39:07;;;;;;;19.70;10.00;;;;;;;;;;4916403;29;20274;-84
2023/12/04 01:41:32;;;;;;;19.65;9.35;;;;;;;;;;4917315;29;20074;-84
2023/12/04 01:43:57;;;;;;;18.45;8.90;;;;;;;;;;4917739;29;20044;-84
2023/12/04 01:46:23;;;;;;;20.13;9.97;;;;;;;;;;4916468;29;20028;-84
2023/12/04 01:48:48;;;;;;;21.67;9.88;;;;;;;;;;4917158;29;20267;-84
2023/12/04 01:51:14;;;;;;;18.50;8.68;;;;;;;;;;4916561;29;20032;-84
2023/12/04 01:53:40;;;;;;;18.05;9.07;;;;;;;;;;4931919;29;20028;-84
2023/12/04 01:56:05;;;;;;;22.20;10.02;;;;;;;;;;4931897;29;20031;-84
2023/12/04 01:58:31;;;;;;;21.20;8.68;;;;;;;;;;4917756;29;20376;-84
2023/12/04 02:00:56;;;;;;;19.98;9.32;;;;;;;;;;4907725;29;20075;-84
2023/12/04 02:03:22;;;;;;;18.85;9.90;;;;;;;;;;4932825;29;20100;-84
2023/12/04 02:05:47;;;;;;;28.70;10.83;;;;;;;;;;4917080;29;20039;-84
2023/12/04 02:08:13;;;;;;;22.90;10.18;;;;;;;;;;4931490;29;20279;-84
2023/12/04 02:10:39;;;;;;;26.90;9.82;;;;;;;;;;4916194;29;20560;-84
2023/12/04 02:13:04;;;;;;;23.17;9.50;;;;;;;;;;4931537;29;20055;-84
2023/12/04 02:15:29;;;;;;;21.63;10.98;;;;;;;;;;4916979;29;20469;-84
2023/12/04 02:17:55;;;;;;;21.67;8.85;;;;;;;;;;4916967;29;20082;-84
2023/12/04 02:20:20;;;;;;;19.90;10.07;;;;;;;;;;4925170;29;20028;-84
2023/12/04 02:22:45;;;;;;;22.60;10.70;;;;;;;;;;4913029;29;20055;-84
2023/12/04 02:25:11;;;;;;;23.57;10.47;;;;;;;;;;4915242;29;20295;-84
2023/12/04 02:27:40;;;;;;;23.15;10.27;;;;;;;;;;4916428;29;20290;-84
2023/12/04 02:30:06;;;;;;;22.65;8.63;;;;;;;;;;4915676;29;20026;-84
2023/12/04 02:32:35;;;;;;;24.13;10.13;;;;;;;;;;4917321;29;20473;-84
2023/12/04 02:35:03;;;;;;;23.75;10.18;;;;;;;;;;4917838;29;20485;-84
2023/12/04 02:37:29;;;;;;;23.77;10.30;;;;;;;;;;4915928;29;20599;-84
2023/12/04 02:39:55;;;;;;;18.27;8.75;;;;;;;;;;4912357;29;20115;-84
2023/12/04 02:42:20;;;;;;;18.30;9.30;;;;;;;;;;4930086;29;20039;-84
2023/12/04 02:44:46;;;;;;;19.17;8.90;;;;;;;;;;4931288;29;20110;-84
2023/12/04 02:47:11;;;;;;;23.27;9.65;;;;;;;;;;4915750;29;20024;-84
2023/12/04 02:49:36;;;;;;;22.60;9.68;;;;;;;;;;4916877;29;20456;-84
2023/12/04 02:52:02;;;;;;;24.50;11.40;;;;;;;;;;4917194;29;20056;-84
2023/12/04 02:54:28;;;;;;;22.60;10.70;;;;;;;;;;4915008;29;20271;-84
2023/12/04 02:56:53;;;;;;;26.23;11.13;;;;;;;;;;4914665;29;20108;-84
2023/12/04 02:59:18;;;;;;;22.63;10.30;;;;;;;;;;4916486;29;20059;-84
2023/12/04 03:01:43;;;;;;;22.00;10.63;;;;;;;;;;4914330;29;20281;-84
2023/12/04 03:04:09;;;;;;;26.13;10.77;;;;;;;;;;4917298;29;20274;-84
2023/12/04 03:06:34;;;;;;;22.17;10.17;;;;;;;;;;4916030;29;20255;-84
2023/12/04 03:08:59;;;;;;;25.85;9.30;;;;;;;;;;4930326;29;20274;-84
2023/12/04 03:11:24;;;;;;;25.50;10.30;;;;;;;;;;4916210;29;20095;-84
2023/12/04 03:13:50;;;;;;;20.58;10.50;;;;;;;;;;4914793;29;20024;-84
2023/12/04 03:16:16;;;;;;;21.93;9.97;;;;;;;;;;4916167;29;20147;-84
2023/12/04 03:18:42;;;;;;;24.33;10.93;;;;;;;;;;4929948;29;20321;-84
2023/12/04 03:21:07;;;;;;;26.20;12.98;;;;;;;;;;4914882;29;20023;-84
2023/12/04 03:23:32;;;;;;;21.92;9.93;;;;;;;;;;4915555;29;20028;-84
2023/12/04 03:25:57;;;;;;;25.07;11.53;;;;;;;;;;4916860;29;20032;-84
2023/12/04 03:28:22;;;;;;;33.50;11.33;;;;;;;;;;4916715;29;20314;-84
2023/12/04 03:30:48;;;;;;;26.87;11.73;;;;;;;;;;4911999;29;20283;-85
2023/12/04 03:33:13;;;;;;;22.93;10.63;;;;;;;;;;4898048;29;20372;-84
2023/12/04 03:35:39;;;;;;;28.30;13.32;;;;;;;;;;4912674;29;20791;-84
2023/12/04 03:38:05;;;;;;;24.35;11.48;;;;;;;;;;4926401;29;20016;-84
2023/12/04 03:40:30;;;;;;;25.03;9.83;;;;;;;;;;4931287;29;20024;-84
2023/12/04 03:42:55;;;;;;;23.97;10.77;;;;;;;;;;4916553;29;20338;-84
2023/12/04 03:45:20;;;;;;;22.43;9.90;;;;;;;;;;4916679;29;20259;-84
2023/12/04 03:47:45;;;;;;;23.87;10.43;;;;;;;;;;4916674;29;20306;-83
2023/12/04 03:50:11;;;;;;;29.90;11.17;;;;;;;;;;4914615;29;20349;-84
2023/12/04 03:52:36;;;;;;;22.02;10.40;;;;;;;;;;4930053;29;20270;-84
2023/12/04 03:55:01;;;;;;;17.03;9.07;;;;;;;;;;4914131;29;20032;-84
2023/12/04 03:57:26;;;;;;;25.38;9.45;;;;;;;;;;4915530;29;20317;-84
2023/12/04 03:59:52;;;;;;;21.70;9.13;;;;;;;;;;4929305;29;20032;-84
2023/12/04 04:02:17;;;;;;;20.00;10.27;;;;;;;;;;4929977;29;20282;-84
2023/12/04 04:04:42;;;;;;;23.40;10.70;;;;;;;;;;4930300;29;20242;-84
2023/12/04 04:07:08;;;;;;;19.77;9.87;;;;;;;;;;4916249;29;20028;-84
2023/12/04 04:09:33;;;;;;;18.70;8.60;;;;;;;;;;4929545;29;20282;-84
2023/12/04 04:11:59;;;;;;;17.98;8.10;;;;;;;;;;4922331;29;20031;-84
2023/12/04 04:14:24;;;;;;;21.13;9.37;;;;;;;;;;4914756;29;20040;-84
2023/12/04 04:16:50;;;;;;;23.55;9.25;;;;;;;;;;4929719;29;20267;-84
2023/12/04 04:19:15;;;;;;;23.73;9.63;;;;;;;;;;4907736;29;20075;-84
2023/12/04 04:21:40;;;;;;;23.83;10.05;;;;;;;;;;4928471;29;20035;-84
2023/12/04 04:24:06;;;;;;;23.95;10.85;;;;;;;;;;4915170;29;20030;-84
2023/12/04 04:26:31;;;;;;;27.70;11.27;;;;;;;;;;4913289;29;20021;-84
2023/12/04 04:28:56;;;;;;;19.30;9.23;;;;;;;;;;4913549;29;20048;-85
2023/12/04 04:31:21;;;;;;;21.13;9.63;;;;;;;;;;4914456;29;20283;-83
2023/12/04 04:33:46;;;;;;;22.87;9.53;;;;;;;;;;4912555;29;20020;-83
2023/12/04 04:36:12;;;;;;;23.63;10.17;;;;;;;;;;4915894;29;20259;-83
2023/12/04 04:38:38;;;;;;;23.83;9.20;;;;;;;;;;4915903;29;20279;-83
2023/12/04 04:41:04;;;;;;;24.40;11.10;;;;;;;;;;4907442;29;20274;-83
2023/12/04 04:43:29;;;;;;;19.27;9.15;;;;;;;;;;4915509;29;20099;-83
2023/12/04 04:45:54;;;;;;;24.50;11.07;;;;;;;;;;4928862;29;20123;-83
2023/12/04 04:48:19;;;;;;;19.83;9.40;;;;;;;;;;4913641;29;20349;-83
2023/12/04 04:50:45;;;;;;;17.70;8.75;;;;;;;;;;4913510;29;20337;-81
2023/12/04 04:53:10;;;;;;;21.70;9.70;;;;;;;;;;4910806;29;20032;-82
2023/12/04 04:55:35;;;;;;;19.27;9.50;;;;;;;;;;4927618;29;20028;-83
2023/12/04 04:58:00;;;;;;;21.07;8.57;;;;;;;;;;4900680;29;20035;-83
2023/12/04 05:00:26;;;;;;;21.80;9.17;;;;;;;;;;4912832;29;20284;-84
2023/12/04 05:02:51;;;;;;;19.57;9.13;;;;;;;;;;4914409;29;20267;-84
2023/12/04 05:05:16;;;;;;;22.55;8.75;;;;;;;;;;4906863;29;20363;-82
2023/12/04 05:07:41;;;;;;;22.93;9.27;;;;;;;;;;4928384;29;20048;-82
2023/12/04 05:10:07;;;;;;;32.13;9.27;;;;;;;;;;4914529;29;20290;-82
2023/12/04 05:12:32;;;;;;;17.85;8.95;;;;;;;;;;4919386;29;20016;-82
2023/12/04 05:14:57;;;;;;;23.97;9.03;;;;;;;;;;4933898;29;20020;-82
2023/12/04 05:17:23;;;;;;;20.67;9.35;;;;;;;;;;4933999;29;20251;-82
2023/12/04 05:19:48;;;;;;;23.92;9.77;;;;;;;;;;4919187;29;20034;-82
2023/12/04 05:22:13;;;;;;;21.57;8.33;;;;;;;;;;4933869;29;20032;-82
2023/12/04 05:24:38;;;;;;;25.38;9.88;;;;;;;;;;4919545;29;20261;-82
2023/12/04 05:27:04;;;;;;;21.63;9.47;;;;;;;;;;4918980;29;20044;-83
2023/12/04 05:29:29;;;;;;;21.83;8.98;;;;;;;;;;4917726;29;20291;-82
2023/12/04 05:31:54;;;;;;;18.37;9.10;;;;;;;;;;4918996;29;20032;-83
2023/12/04 05:34:19;;;;;;;18.20;8.35;;;;;;;;;;4918992;29;20266;-82
2023/12/04 05:36:45;;;;;;;24.27;7.82;;;;;;;;;;4918954;29;20032;-82
2023/12/04 05:39:10;;;;;;;23.20;8.97;;;;;;;;;;4933631;29;20031;-82
2023/12/04 05:41:35;;;;;;;20.07;8.67;;;;;;;;;;4918950;29;20307;-82
2023/12/04 05:44:00;;;;;;;21.33;9.20;;;;;;;;;;4918862;29;20247;-82
2023/12/04 05:46:26;;;;;;;17.05;7.38;;;;;;;;;;4917531;29;20021;-82
2023/12/04 05:48:51;;;;;;;25.10;8.20;;;;;;;;;;4933268;29;20082;-83
2023/12/04 05:51:16;;;;;;;15.90;8.37;;;;;;;;;;4918913;29;20302;-82
2023/12/04 05:53:41;;;;;;;21.90;8.20;;;;;;;;;;4917473;29;20755;-83
2023/12/04 05:56:08;;;;;;;19.63;8.43;;;;;;;;;;4918756;29;20761;-82
2023/12/04 05:58:34;;;;;;;20.90;9.48;;;;;;;;;;4918558;29;20251;-83
2023/12/04 06:00:59;;;;;;;20.77;9.98;;;;;;;;;;4933048;29;20075;-82
2023/12/04 06:03:24;;;;;;;17.10;8.87;;;;;;;;;;4918524;29;20106;-82
2023/12/04 06:05:49;;;;;;;22.97;9.30;;;;;;;;;;4917215;29;20694;-82
2023/12/04 06:08:14;;;;;;;22.23;9.93;;;;;;;;;;4918667;29;20257;-82
2023/12/04 06:10:40;;;;;;;20.67;8.50;;;;;;;;;;4918368;29;20055;-82
2023/12/04 06:13:05;;;;;;;19.63;9.50;;;;;;;;;;4932148;29;20298;-82
2023/12/04 06:15:30;;;;;;;23.10;9.30;;;;;;;;;;4918248;29;20016;-82
2023/12/04 06:17:55;;;;;;;21.83;10.13;;;;;;;;;;4918474;29;20247;-82
2023/12/04 06:20:21;;;;;;;20.20;8.53;;;;;;;;;;4916946;29;20262;-82
2023/12/04 06:22:46;;;;;;;21.60;8.40;;;;;;;;;;4918021;29;20257;-82
2023/12/04 06:25:11;;;;;;;23.05;9.55;;;;;;;;;;4916880;29;20266;-83
2023/12/04 06:27:38;;;;;;;21.38;9.45;;;;;;;;;;4932534;29;20047;-82
2023/12/04 06:30:04;;;;;;;21.00;9.10;;;;;;;;;;4917934;29;20153;-82
2023/12/04 06:32:29;;;;;;;18.00;9.07;;;;;;;;;;4918093;29;20103;-82
2023/12/04 06:34:55;;;;;;;18.65;8.85;;;;;;;;;;4932422;29;20027;-82
2023/12/04 06:37:20;;;;;;;21.35;9.00;;;;;;;;;;4932564;29;20026;-82
2023/12/04 06:39:47;;;;;;;22.90;10.15;;;;;;;;;;4917797;29;20473;-82
2023/12/04 06:42:13;;;;;;;25.73;9.55;;;;;;;;;;4932418;29;20080;-82
2023/12/04 06:44:38;;;;;;;25.98;10.50;;;;;;;;;;4916599;29;20020;-82
2023/12/04 06:47:04;;;;;;;19.70;8.07;;;;;;;;;;4917796;29;20034;-82
2023/12/04 06:49:30;;;;;;;22.55;10.48;;;;;;;;;;4932240;29;20020;-82
2023/12/04 06:51:56;;;;;;;22.73;9.40;;;;;;;;;;4903053;29;20039;-82
2023/12/04 06:54:21;;;;;;;21.58;9.02;;;;;;;;;;4899935;29;20025;-82
2023/12/04 06:56:46;;;;;;;18.00;8.40;;;;;;;;;;4899663;29;20513;-82
2023/12/04 06:59:11;;;;;;;21.90;9.40;;;;;;;;;;4899619;29;20271;-82
2023/12/04 07:01:36;;;;;;;21.30;8.87;;;;;;;;;;4914064;29;20639;-82
2023/12/04 07:04:09;;;;;;;15.50;7.83;;;;;;;;;;4899577;29;20278;-82
2023/12/04 07:06:35;;;;;;;14.73;7.28;;;;;;;;;;4914028;29;20748;-82
2023/12/04 07:09:00;;;;;;;21.70;9.27;;;;;;;;;;4899467;29;20096;-82
2023/12/04 07:11:26;;;;;;;22.92;9.35;;;;;;;;;;4899321;29;20024;-82
2023/12/04 07:13:51;;;;;;;19.70;8.82;;;;;;;;;;4899647;29;20048;-82
2023/12/04 07:16:17;;;;;;;21.58;9.52;;;;;;;;;;4913831;29;20362;-82
2023/12/04 07:18:42;;;;;;;18.77;9.48;;;;;;;;;;4913789;29;20031;-82
2023/12/04 07:21:07;;;;;;;15.23;7.53;;;;;;;;;;4899193;29;20434;-82
2023/12/04 07:23:33;;;;;;;22.33;10.07;;;;;;;;;;4899188;29;20381;-82
2023/12/04 07:25:58;;;;;;;20.75;8.52;;;;;;;;;;4913623;29;20029;-82
2023/12/04 07:28:24;;;;;;;18.02;8.60;;;;;;;;;;4898951;29;20545;-82
2023/12/04 07:30:49;;;;;;;22.92;9.20;;;;;;;;;;4897764;29;20496;-82
2023/12/04 07:33:14;;;;;;;21.00;8.98;;;;;;;;;;4898991;29;20104;-82
2023/12/04 07:35:39;;;;;;;29.50;9.87;;;;;;;;;;4899040;29;20025;-82
2023/12/04 07:38:05;;;;;;;25.73;9.17;;;;;;;;;;4897716;29;20267;-82
2023/12/04 07:40:30;;;;;;;22.42;9.95;;;;;;;;;;4913445;29;20291;-82
2023/12/04 07:42:55;;;;;;;21.87;9.70;;;;;;;;;;4913388;29;20445;-82
2023/12/04 07:45:21;;;;;;;21.20;10.43;;;;;;;;;;4898847;29;20742;-82
2023/12/04 07:47:46;;;;;;;22.48;9.75;;;;;;;;;;4913236;29;20275;-82
2023/12/04 07:50:11;;;;;;;21.67;9.07;;;;;;;;;;4913199;29;20033;-82
2023/12/04 07:52:37;;;;;;;22.38;10.43;;;;;;;;;;4913161;29;20256;-82
2023/12/04 07:55:02;;;;;;;23.63;9.93;;;;;;;;;;4898732;29;20024;-82
2023/12/04 07:57:27;;;;;;;29.58;10.60;;;;;;;;;;4913179;29;20027;-82
2023/12/04 07:59:53;;;;;;;20.33;9.90;;;;;;;;;;4913147;29;20050;-82
2023/12/04 08:02:18;;;;;;;22.90;9.60;;;;;;;;;;4898506;29;20711;-82
2023/12/04 08:04:43;;;;;;;20.48;10.02;;;;;;;;;;4898519;29;20485;-82
2023/12/04 08:07:09;;;;;;;17.63;8.87;;;;;;;;;;4912986;29;20060;-82
2023/12/04 08:09:34;;;;;;;20.58;9.75;;;;;;;;;;4912872;29;20310;-82
2023/12/04 08:11:59;;;;;;;26.53;10.07;;;;;;;;;;4897229;29;20433;-83
2023/12/04 08:14:26;;;;;;;21.80;10.43;;;;;;;;;;4898358;29;20025;-82
2023/12/04 08:16:51;;;;;;;24.55;11.60;;;;;;;;;;4898406;29;20283;-82
2023/12/04 08:19:16;;;;;;;27.58;10.23;;;;;;;;;;4912813;29;20454;-83
2023/12/04 08:21:42;;;;;;;21.50;10.98;;;;;;;;;;4912770;29;20039;-82
2023/12/04 08:24:07;;;;;;;21.02;10.20;;;;;;;;;;4912775;29;20072;-83
2023/12/04 08:26:33;;;;;;;20.35;10.27;;;;;;;;;;4912714;29;20017;-83
2023/12/04 08:28:58;;;;;;;25.63;11.23;;;;;;;;;;4912598;29;20095;-83
2023/12/04 08:31:24;;;;;;;21.23;9.15;;;;;;;;;;4912685;29;20081;-82
2023/12/04 08:33:49;;;;;;;24.25;10.82;;;;;;;;;;4898218;29;20024;-83
2023/12/04 08:36:15;;;;;;;22.13;9.63;;;;;;;;;;4915199;29;20071;-83
2023/12/04 08:38:40;;;;;;;29.55;11.27;;;;;;;;;;4918917;29;20263;-83
2023/12/04 08:41:06;;;;;;;27.83;11.85;;;;;;;;;;4904327;29;20152;-83
2023/12/04 08:43:31;;;;;;;21.92;10.15;;;;;;;;;;4918918;29;20051;-83
2023/12/04 08:45:56;;;;;;;23.67;9.50;;;;;;;;;;4918852;29;20028;-83
2023/12/04 08:48:21;;;;;;;23.83;10.57;;;;;;;;;;4904408;29;20031;-82
2023/12/04 08:50:47;;;;;;;24.40;10.07;;;;;;;;;;4904575;29;20582;-82
2023/12/04 08:53:12;;;;;;;20.63;10.05;;;;;;;;;;4929524;29;20115;-82
2023/12/04 08:55:37;;;;;;;23.03;9.80;;;;;;;;;;4923185;29;20461;-82
2023/12/04 08:58:03;;;;;;;23.23;8.98;;;;;;;;;;4921956;29;20250;-82
2023/12/04 09:00:29;;;;;;;21.77;9.70;;;;;;;;;;4921860;29;20477;-82
2023/12/04 09:02:54;;;;;;;21.87;9.07;;;;;;;;;;4937795;29;20560;-82
2023/12/04 09:05:19;;;;;;;24.73;11.63;;;;;;;;;;4923171;29;20253;-82
2023/12/04 09:07:44;;;;;;;27.98;11.30;;;;;;;;;;4937715;29;20365;-82
2023/12/04 09:10:10;;;;;;;23.83;9.70;;;;;;;;;;4922971;29;20033;-82
2023/12/04 09:12:36;;;;;;;18.27;8.85;;;;;;;;;;4921972;29;20036;-82
2023/12/04 09:15:02;;;;;;;16.52;8.55;;;;;;;;;;4937691;29;20496;-82
2023/12/04 09:17:27;;;;;;;19.65;9.23;;;;;;;;;;4937506;29;20027;-82
2023/12/04 09:19:52;;;;;;;27.42;10.55;;;;;;;;;;4921741;29;20393;-82
2023/12/04 09:22:18;;;;;;;22.77;10.33;;;;;;;;;;4922916;29;20087;-83
2023/12/04 09:24:44;;;;;;;22.73;9.52;;;;;;;;;;4922927;29;20262;-82
2023/12/04 09:27:09;;;;;;;22.98;9.68;;;;;;;;;;4937327;29;20096;-82
2023/12/04 09:29:34;;;;;;;18.95;9.80;;;;;;;;;;4921690;29;20023;-82
2023/12/04 09:32:00;;;;;;;21.80;10.63;;;;;;;;;;4922956;29;20024;-82
2023/12/04 09:34:25;;;;;;;21.57;9.77;;;;;;;;;;4921700;29;20024;-82
2023/12/04 09:36:50;;;;;;;19.50;9.50;;;;;;;;;;4937555;29;20736;-82
2023/12/04 09:39:15;;;;;;;18.37;8.23;;;;;;;;;;4922855;29;20661;-82
2023/12/04 09:41:42;;;;;;;27.67;9.85;;;;;;;;;;4937448;29;20259;-82
2023/12/04 09:44:07;;;;;;;18.20;8.43;;;;;;;;;;4922749;29;20028;-82
2023/12/04 09:46:33;;;;;;;23.60;9.77;;;;;;;;;;4921551;29;20405;-82
2023/12/04 09:48:59;;;;;;;22.83;10.73;;;;;;;;;;4917422;29;20404;-82
2023/12/04 09:51:25;;;;;;;18.80;9.23;;;;;;;;;;4934647;29;20028;-82
2023/12/04 09:53:52;;;;;;;20.23;9.40;;;;;;;;;;4918501;29;20016;-82
2023/12/04 09:56:17;;;;;;;27.88;9.73;;;;;;;;;;4934305;29;20112;-82
2023/12/04 09:58:44;;;;;;;29.80;11.32;;;;;;;;;;4934257;29;20051;-82
2023/12/04 10:01:10;;;;;;;21.08;10.73;;;;;;;;;;4934169;29;20028;-82
2023/12/04 10:03:36;;;;;;;24.30;9.80;;;;;;;;;;4918452;29;20477;-82
2023/12/04 10:06:01;;;;;;;17.95;8.88;;;;;;;;;;4919570;29;20071;-82
2023/12/04 10:08:27;;;;;;;22.52;8.60;;;;;;;;;;4918175;29;20115;-82
2023/12/04 10:10:52;;;;;;;20.77;9.53;;;;;;;;;;4919337;29;20024;-82
2023/12/04 10:13:17;;;;;;;23.00;9.73;;;;;;;;;;4919288;29;20354;-82
2023/12/04 10:15:46;;;;;;;20.25;9.35;;;;;;;;;;4919286;29;20333;-82
2023/12/04 10:18:23;;;;;;;17.67;8.82;;;;;;;;;;4919285;29;20075;-82
2023/12/04 10:20:54;;;;;;;21.88;9.32;;;;;;;;;;4933810;29;20404;-82
2023/12/04 10:23:19;;;;;;;23.95;9.52;;;;;;;;;;4932775;29;20028;-82
2023/12/04 10:25:45;;;;;;;20.10;9.70;;;;;;;;;;4933742;29;20039;-82
2023/12/04 10:28:12;;;;;;;18.00;8.70;;;;;;;;;;4918979;29;20063;-82
2023/12/04 10:30:37;;;;;;;24.25;10.10;;;;;;;;;;4919000;29;20043;-83
2023/12/04 10:33:04;;;;;;;26.90;10.02;;;;;;;;;;4933622;29;20028;-82
2023/12/04 10:35:36;;;;;;;20.05;9.55;;;;;;;;;;4933564;29;20042;-82
2023/12/04 10:38:02;;;;;;;19.83;9.50;;;;;;;;;;4933574;29;20099;-82
2023/12/04 10:40:28;;;;;;;24.27;9.88;;;;;;;;;;4918872;29;20254;-82
2023/12/04 10:43:09;;;;;;;26.05;10.40;;;;;;;;;;4918752;29;20066;-82
2023/12/04 10:45:35;;;;;;;19.20;8.48;;;;;;;;;;4918862;29;20176;-82
2023/12/04 10:48:01;;;;;;;21.95;10.18;;;;;;;;;;4918777;29;20496;-82
2023/12/04 10:50:28;;;;;;;20.63;9.45;;;;;;;;;;4918657;29;20049;-82
2023/12/04 10:52:54;;;;;;;19.20;8.80;;;;;;;;;;4933511;29;20495;-83
2023/12/04 10:55:19;;;;;;;21.20;8.50;;;;;;;;;;4918689;29;20107;-82
2023/12/04 10:57:46;;;;;;;20.47;8.73;;;;;;;;;;4918621;29;20095;-82
2023/12/04 11:00:16;;;;;;;21.38;7.68;;;;;;;;;;4918546;29;20619;-82
2023/12/04 11:02:46;;;;;;;18.60;8.77;;;;;;;;;;4932953;29;20031;-82
2023/12/04 11:05:17;;;;;;;15.68;7.72;;;;;;;;;;4933075;29;20118;-82
2023/12/04 11:07:51;;;;;;;19.58;7.57;;;;;;;;;;4932967;29;20449;-82
2023/12/04 11:10:17;;;;;;;18.55;7.72;;;;;;;;;;4917071;29;20024;-82
2023/12/04 11:12:44;;;;;;;17.95;7.80;;;;;;;;;;4916999;29;20028;-82
2023/12/04 11:15:10;;;;;;;15.40;7.22;;;;;;;;;;4917039;29;20059;-82
2023/12/04 11:17:36;;;;;;;20.25;7.93;;;;;;;;;;4932809;29;20020;-83
2023/12/04 11:20:07;;;;;;;15.55;6.88;;;;;;;;;;4918243;29;20020;-82
2023/12/04 11:22:35;;;;;;;15.70;7.15;;;;;;;;;;4918050;29;20079;-82
2023/12/04 11:25:01;;;;;;;15.65;7.38;;;;;;;;;;4918042;29;20024;-82
2023/12/04 11:27:26;;;;;;;14.50;6.88;;;;;;;;;;4917887;29;20416;-82
2023/12/04 11:29:52;;;;;;;17.80;7.32;;;;;;;;;;4917958;29;20028;-82
2023/12/04 11:32:18;;;;;;;17.65;6.75;;;;;;;;;;4916783;29;20071;-82
2023/12/04 11:34:50;;;;;;;13.40;6.93;;;;;;;;;;4916710;29;20027;-82
2023/12/04 11:37:15;;;;;;;14.48;5.80;;;;;;;;;;4917831;29;20039;-83
2023/12/04 11:39:41;;;;;;;18.20;5.90;;;;;;;;;;4932409;29;20515;-82
2023/12/04 11:42:06;;;;;;;16.27;7.03;;;;;;;;;;4932359;29;20679;-82
2023/12/04 11:44:32;;;;;;;14.48;6.45;;;;;;;;;;4916500;29;20072;-82
2023/12/04 11:47:02;;;;;;;15.65;7.00;;;;;;;;;;4916413;29;20055;-82
2023/12/04 11:49:30;;;;;;;12.50;6.18;;;;;;;;;;4932181;29;20020;-82
2023/12/04 11:51:56;;;;;;;22.00;7.38;;;;;;;;;;4917611;29;20118;-83
2023/12/04 11:54:25;;;;;;;14.48;6.60;;;;;;;;;;4932212;29;20032;-82
2023/12/04 11:56:58;;;;;;;12.32;6.05;;;;;;;;;;4917588;29;20116;-82
2023/12/04 11:59:23;;;;;;;13.38;6.95;;;;;;;;;;4932123;29;20020;-82
2023/12/04 12:01:54;;;;;;;14.03;6.33;;;;;;;;;;4917425;29;20520;-82
2023/12/04 12:04:20;;;;;;;12.95;6.50;;;;;;;;;;4931990;29;20254;-82
2023/12/04 12:06:45;;;;;;;15.95;7.68;;;;;;;;;;4917407;29;20103;-82
2023/12/04 12:09:11;;;;;;;20.25;8.70;;;;;;;;;;4917314;29;20025;-82
2023/12/04 12:11:36;;;;;;;19.15;8.18;;;;;;;;;;4916627;29;20027;-82
2023/12/04 12:14:02;;;;;;;18.52;7.35;;;;;;;;;;4917338;29;20035;-82
2023/12/04 12:16:27;;;;;;;17.23;7.38;;;;;;;;;;4917214;29;20020;-82
2023/12/04 12:18:53;;;;;;;14.00;7.03;;;;;;;;;;4917267;29;20111;-82
2023/12/04 12:21:18;;;;;;;15.05;6.72;;;;;;;;;;4931791;29;20024;-82
2023/12/04 12:23:43;;;;;;;16.90;7.53;;;;;;;;;;4931775;29;20473;-82
2023/12/04 12:26:09;;;;;;;15.60;6.68;;;;;;;;;;4916031;29;20769;-82
2023/12/04 12:28:35;;;;;;;14.43;6.53;;;;;;;;;;4931563;29;20051;-82
2023/12/04 12:31:03;;;;;;;16.63;6.38;;;;;;;;;;4931639;29;20024;-82
2023/12/04 12:33:29;;;;;;;14.50;6.75;;;;;;;;;;4917130;29;20024;-82
2023/12/04 12:35:54;;;;;;;15.20;6.80;;;;;;;;;;4917079;29;20020;-82
2023/12/04 12:38:20;;;;;;;16.10;8.23;;;;;;;;;;4915769;29;20048;-82
2023/12/04 12:40:46;;;;;;;14.43;7.30;;;;;;;;;;4916976;29;20042;-82
2023/12/04 12:43:11;;;;;;;20.80;8.25;;;;;;;;;;4917051;29;20389;-82
2023/12/04 12:45:40;;;;;;;17.42;7.30;;;;;;;;;;4915735;29;20051;-82
2023/12/04 12:48:05;;;;;;;17.55;7.40;;;;;;;;;;4916999;29;20536;-82
2023/12/04 12:50:31;;;;;;;15.52;7.50;;;;;;;;;;4916882;29;20133;-82
2023/12/04 12:52:57;;;;;;;15.43;7.68;;;;;;;;;;4915653;29;20476;-82
2023/12/04 12:55:24;;;;;;;12.02;6.65;;;;;;;;;;4916861;29;20079;-82
2023/12/04 12:57:49;;;;;;;12.88;6.90;;;;;;;;;;4915729;29;20540;-82
2023/12/04 13:00:14;;;;;;;18.13;7.93;;;;;;;;;;4931434;29;20024;-82
2023/12/04 13:02:40;;;;;;;15.52;8.23;;;;;;;;;;4916877;29;20040;-82
2023/12/04 13:05:05;;;;;;;17.88;8.40;;;;;;;;;;4931403;29;20066;-82
2023/12/04 13:07:31;;;;;;;15.55;7.82;;;;;;;;;;4931398;29;20028;-82
2023/12/04 13:09:56;;;;;;;17.90;7.05;;;;;;;;;;4916729;29;20392;-82
2023/12/04 13:12:21;;;;;;;14.98;7.57;;;;;;;;;;4915551;29;20035;-82
2023/12/04 13:14:47;;;;;;;13.48;6.72;;;;;;;;;;4916815;29;20031;-82
2023/12/04 13:17:12;;;;;;;12.00;6.33;;;;;;;;;;4916799;29;20103;-82
2023/12/04 13:19:37;;;;;;;13.23;6.30;;;;;;;;;;4915584;29;20266;-82
2023/12/04 13:22:04;;;;;;;13.93;7.35;;;;;;;;;;4917402;29;20251;-82
2023/12/04 13:24:29;;;;;;;13.70;6.88;;;;;;;;;;4934927;29;20103;-82
2023/12/04 13:26:55;;;;;;;13.95;6.38;;;;;;;;;;4920091;29;20176;-82
2023/12/04 13:29:20;;;;;;;14.35;6.25;;;;;;;;;;4934765;29;20083;-82
2023/12/04 13:31:48;;;;;;;11.43;5.45;;;;;;;;;;4934601;29;20119;-82
2023/12/04 13:34:14;;;;;;;12.65;6.22;;;;;;;;;;4920153;29;20111;-82
2023/12/04 13:36:40;;;;;;;13.47;6.70;;;;;;;;;;4920129;29;20095;-82
2023/12/04 13:39:16;;;;;;;9.38;5.78;;;;;;;;;;4934581;29;20251;-82
2023/12/04 13:44:25;;;;;;;14.40;6.85;;;;;;;;;;4920161;29;20043;-82
2023/12/04 13:46:51;;;;;;;11.17;5.53;;;;;;;;;;4934460;29;20020;-81
2023/12/04 13:49:19;;;;;;;10.93;5.60;;;;;;;;;;4934410;29;20259;-82
2023/12/04 13:51:44;;;;;;;10.02;6.30;;;;;;;;;;4918459;29;20027;-82
2023/12/04 13:54:20;;;;;;;12.07;6.70;;;;;;;;;;4934229;29;20024;-82
2023/12/04 13:56:53;;;;;;;11.68;6.45;;;;;;;;;;4934299;29;20027;-82
2023/12/04 13:59:19;;;;;;;10.68;5.68;;;;;;;;;;4934252;29;20020;-82
2023/12/04 14:01:45;;;;;;;13.02;5.85;;;;;;;;;;4918378;29;20495;-82
2023/12/04 14:04:10;;;;;;;10.30;5.28;;;;;;;;;;4919605;29;20024;-82
2023/12/04 14:06:35;;;;;;;11.93;6.45;;;;;;;;;;4918353;29;20036;-82
2023/12/04 14:09:01;;;;;;;11.17;5.33;;;;;;;;;;4934076;29;20056;-82
2023/12/04 14:11:26;;;;;;;12.50;7.10;;;;;;;;;;4933970;29;20318;-82
2023/12/04 14:13:51;;;;;;;12.43;6.07;;;;;;;;;;4919383;29;20254;-82
2023/12/04 14:16:16;;;;;;;8.70;5.97;;;;;;;;;;4918114;29;20090;-82
2023/12/04 14:18:41;;;;;;;9.25;5.63;;;;;;;;;;4919326;29;20243;-82
2023/12/04 14:21:07;;;;;;;10.80;5.73;;;;;;;;;;4917991;29;20028;-82